CheckWX is a tool to help pilots better visualize weather data.  It is not intended as a substitute for an official pre-flight weather briefing.

00:22:06 UTC

MDBH TAF
Maria Montez International Airport
Barahona, Dominican Republic
TAF MDBH 251600Z 2518/2618 13006KT 9999 FEW023 PROB30 2602/2606 8000 RA FEW018CB SCT20 SCT070 BECMG 2601/2603 00000KT

Mar-25@
18:00 UTC

Mar-25 @ 18:00 UTC

Mar-26@
01:00 UTC

Mar-26 @ 01:00 UTC

TAF MDBH 251600Z 2518/2618 13006KT 9999 FEW023
Wind
  • 130° at 6 KTS
Cloud Levels
  • Few at 2,300' AGL

Mar-26@
01:00 UTC

Mar-26 @ 01:00 UTC

Mar-26@
18:00 UTC

Mar-26 @ 18:00 UTC

BECMG 2601/2603 00000KT

Becoming

Becoming Conditions expected by Tue, Mar 26, 2019 @ 03:00 UTC

Cloud Levels
  • Few at 2,300' AGL

Mar-26@
02:00 UTC

Mar-26 @ 02:00 UTC

Mar-26@
06:00 UTC

Mar-26 @ 06:00 UTC

PROB30 2602/2606 8000 RA FEW018CB SCT20 SCT070

Probable - 30% Likelihood

Probable - 30% Likelihood during this time.

Conditions
Rain
Cloud Levels
  • Few at 1,800' AGL
  • Scattered at 7,000' AGL